sensor_id;sensor_type;location;lat;lon;timestamp;pressure;altitude;pressure_sealevel;temperature;humidity
52983;BME280;48698;45.736;13.926;2023-01-30T00:04:35;97891.81;;;-3.51;100.00
52983;BME280;48698;45.736;13.926;2023-01-30T00:09:37;97871.56;;;-3.95;100.00
52983;BME280;48698;45.736;13.926;2023-01-30T00:14:41;98130.81;;;-2.47;100.00
52983;BME280;48698;45.736;13.926;2023-01-30T00:19:44;97957.66;;;-3.43;100.00
52983;BME280;48698;45.736;13.926;2023-01-30T00:24:46;97889.66;;;-3.99;100.00
52983;BME280;48698;45.736;13.926;2023-01-30T00:29:49;98064.69;;;-2.80;100.00
52983;BME280;48698;45.736;13.926;2023-01-30T00:35:03;98065.44;;;-2.96;100.00
52983;BME280;48698;45.736;13.926;2023-01-30T00:40:18;98078.59;;;-2.72;100.00
52983;BME280;48698;45.736;13.926;2023-01-30T00:45:21;98111.59;;;-2.65;100.00
52983;BME280;48698;45.736;13.926;2023-01-30T00:50:43;97970.66;;;-3.40;100.00
52983;BME280;48698;45.736;13.926;2023-01-30T00:55:46;98109.59;;;-2.99;100.00
52983;BME280;48698;45.736;13.926;2023-01-30T01:00:50;98086.00;;;-3.17;100.00
52983;BME280;48698;45.736;13.926;2023-01-30T01:05:53;97992.84;;;-3.76;100.00
52983;BME280;48698;45.736;13.926;2023-01-30T01:10:56;98052.09;;;-3.35;100.00
52983;BME280;48698;45.736;13.926;2023-01-30T01:15:59;97782.59;;;-4.74;100.00
52983;BME280;48698;45.736;13.926;2023-01-30T01:21:02;98078.44;;;-2.96;100.00
52983;BME280;48698;45.736;13.926;2023-01-30T01:26:05;97918.09;;;-4.11;100.00
52983;BME280;48698;45.736;13.926;2023-01-30T01:31:09;98026.88;;;-3.45;100.00
52983;BME280;48698;45.736;13.926;2023-01-30T01:36:12;97826.50;;;-4.86;100.00
52983;BME280;48698;45.736;13.926;2023-01-30T01:41:35;97895.34;;;-4.35;100.00
52983;BME280;48698;45.736;13.926;2023-01-30T01:51:56;97819.41;;;-5.02;100.00
52983;BME280;48698;45.736;13.926;2023-01-30T01:57:27;97909.06;;;-4.45;100.00
52983;BME280;48698;45.736;13.926;2023-01-30T02:02:43;97866.34;;;-4.76;100.00
52983;BME280;48698;45.736;13.926;2023-01-30T02:08:09;97818.81;;;-5.47;100.00
52983;BME280;48698;45.736;13.926;2023-01-30T02:13:23;98022.84;;;-3.97;100.00
52983;BME280;48698;45.736;13.926;2023-01-30T02:18:28;97699.69;;;-5.55;100.00
52983;BME280;48698;45.736;13.926;2023-01-30T02:45:15;97814.34;;;-6.14;100.00
52983;BME280;48698;45.736;13.926;2023-01-30T02:50:27;97894.16;;;-5.26;100.00
52983;BME280;48698;45.736;13.926;2023-01-30T02:55:31;97824.91;;;-5.42;100.00
52983;BME280;48698;45.736;13.926;2023-01-30T03:01:48;97949.22;;;-4.81;100.00
52983;BME280;48698;45.736;13.926;2023-01-30T03:17:07;97978.69;;;-4.05;100.00
52983;BME280;48698;45.736;13.926;2023-01-30T03:22:11;97978.31;;;-4.35;100.00
52983;BME280;48698;45.736;13.926;2023-01-30T03:27:14;97889.56;;;-4.84;100.00
52983;BME280;48698;45.736;13.926;2023-01-30T03:32:17;97890.88;;;-5.16;100.00
52983;BME280;48698;45.736;13.926;2023-01-30T03:37:19;97685.94;;;-6.17;100.00
52983;BME280;48698;45.736;13.926;2023-01-30T03:42:32;97654.78;;;-6.26;100.00
52983;BME280;48698;45.736;13.926;2023-01-30T03:47:35;97835.09;;;-5.54;100.00
52983;BME280;48698;45.736;13.926;2023-01-30T03:52:38;97631.47;;;-6.31;100.00
52983;BME280;48698;45.736;13.926;2023-01-30T03:57:41;97763.97;;;-5.82;100.00
52983;BME280;48698;45.736;13.926;2023-01-30T04:02:44;97706.94;;;-5.93;100.00
52983;BME280;48698;45.736;13.926;2023-01-30T04:07:55;97911.53;;;-4.57;100.00
52983;BME280;48698;45.736;13.926;2023-01-30T04:12:58;97933.19;;;-4.49;100.00
52983;BME280;48698;45.736;13.926;2023-01-30T04:18:00;97880.78;;;-4.98;100.00
52983;BME280;48698;45.736;13.926;2023-01-30T04:23:13;97827.53;;;-5.39;100.00
52983;BME280;48698;45.736;13.926;2023-01-30T04:28:16;97803.22;;;-5.52;100.00
52983;BME280;48698;45.736;13.926;2023-01-30T04:33:18;97677.47;;;-6.07;100.00
52983;BME280;48698;45.736;13.926;2023-01-30T04:38:22;97575.94;;;-7.12;100.00
52983;BME280;48698;45.736;13.926;2023-01-30T04:43:26;97594.88;;;-7.12;100.00
52983;BME280;48698;45.736;13.926;2023-01-30T04:48:30;97750.00;;;-5.98;100.00
52983;BME280;48698;45.736;13.926;2023-01-30T04:53:33;97650.44;;;-6.83;100.00
52983;BME280;48698;45.736;13.926;2023-01-30T04:58:37;97831.72;;;-5.50;100.00
52983;BME280;48698;45.736;13.926;2023-01-30T05:03:39;97780.50;;;-5.72;100.00
52983;BME280;48698;45.736;13.926;2023-01-30T05:08:42;97756.97;;;-5.92;100.00
52983;BME280;48698;45.736;13.926;2023-01-30T05:13:53;97778.66;;;-5.80;100.00
52983;BME280;48698;45.736;13.926;2023-01-30T05:18:56;97720.50;;;-6.09;100.00
52983;BME280;48698;45.736;13.926;2023-01-30T05:23:59;97585.88;;;-6.84;100.00
52983;BME280;48698;45.736;13.926;2023-01-30T05:29:02;97650.50;;;-6.22;100.00
52983;BME280;48698;45.736;13.926;2023-01-30T05:34:05;97799.59;;;-5.64;100.00
52983;BME280;48698;45.736;13.926;2023-01-30T05:39:07;97846.06;;;-5.70;100.00
52983;BME280;48698;45.736;13.926;2023-01-30T05:44:10;97585.59;;;-7.53;100.00
52983;BME280;48698;45.736;13.926;2023-01-30T05:49:23;97907.72;;;-5.44;100.00
52983;BME280;48698;45.736;13.926;2023-01-30T05:54:26;97759.03;;;-6.76;100.00
52983;BME280;48698;45.736;13.926;2023-01-30T05:59:39;97902.22;;;-5.65;100.00
52983;BME280;48698;45.736;13.926;2023-01-30T06:04:42;97925.31;;;-5.77;100.00
52983;BME280;48698;45.736;13.926;2023-01-30T06:09:54;97876.97;;;-5.78;100.00
52983;BME280;48698;45.736;13.926;2023-01-30T06:14:57;97904.66;;;-5.72;100.00
52983;BME280;48698;45.736;13.926;2023-01-30T06:20:01;97727.38;;;-6.65;100.00
52983;BME280;48698;45.736;13.926;2023-01-30T06:25:04;97942.22;;;-5.43;100.00
52983;BME280;48698;45.736;13.926;2023-01-30T06:30:08;97702.88;;;-6.37;100.00
52983;BME280;48698;45.736;13.926;2023-01-30T06:35:20;97916.66;;;-5.22;100.00
52983;BME280;48698;45.736;13.926;2023-01-30T06:40:23;97928.75;;;-5.24;100.00
52983;BME280;48698;45.736;13.926;2023-01-30T06:45:26;97618.22;;;-7.06;100.00
52983;BME280;48698;45.736;13.926;2023-01-30T06:50:29;97925.13;;;-5.34;100.00
52983;BME280;48698;45.736;13.926;2023-01-30T06:55:33;97912.38;;;-5.20;100.00
52983;BME280;48698;45.736;13.926;2023-01-30T07:00:38;97939.66;;;-4.83;100.00
52983;BME280;48698;45.736;13.926;2023-01-30T07:05:42;97941.81;;;-5.15;100.00
52983;BME280;48698;45.736;13.926;2023-01-30T07:10:45;97898.72;;;-5.11;100.00
52983;BME280;48698;45.736;13.926;2023-01-30T07:15:48;97825.38;;;-5.69;100.00
52983;BME280;48698;45.736;13.926;2023-01-30T07:21:01;97946.47;;;-4.90;100.00
52983;BME280;48698;45.736;13.926;2023-01-30T07:26:05;97889.38;;;-4.99;100.00
52983;BME280;48698;45.736;13.926;2023-01-30T07:31:16;97910.03;;;-5.05;100.00
52983;BME280;48698;45.736;13.926;2023-01-30T07:36:19;97872.38;;;-4.79;100.00
52983;BME280;48698;45.736;13.926;2023-01-30T07:41:22;97942.41;;;-4.00;100.00
52983;BME280;48698;45.736;13.926;2023-01-30T07:46:24;97790.56;;;-4.58;100.00
52983;BME280;48698;45.736;13.926;2023-01-30T07:51:39;97872.56;;;-3.78;100.00
52983;BME280;48698;45.736;13.926;2023-01-30T07:56:43;97885.97;;;-3.23;100.00
52983;BME280;48698;45.736;13.926;2023-01-30T08:01:46;97573.56;;;-4.82;100.00
52983;BME280;48698;45.736;13.926;2023-01-30T08:06:48;97583.31;;;-4.45;100.00
52983;BME280;48698;45.736;13.926;2023-01-30T08:11:51;97868.22;;;-2.19;100.00
52983;BME280;48698;45.736;13.926;2023-01-30T08:16:55;97759.81;;;-2.45;100.00
52983;BME280;48698;45.736;13.926;2023-01-30T08:21:58;97737.28;;;-2.21;100.00
52983;BME280;48698;45.736;13.926;2023-01-30T08:27:11;97592.53;;;-2.59;100.00
52983;BME280;48698;45.736;13.926;2023-01-30T08:32:14;97685.16;;;-1.68;100.00
52983;BME280;48698;45.736;13.926;2023-01-30T08:37:23;97666.06;;;-1.67;100.00
52983;BME280;48698;45.736;13.926;2023-01-30T08:42:31;97807.22;;;-0.54;100.00
52983;BME280;48698;45.736;13.926;2023-01-30T08:47:33;97784.56;;;-0.46;100.00
52983;BME280;48698;45.736;13.926;2023-01-30T08:52:37;97773.03;;;-0.10;100.00
52983;BME280;48698;45.736;13.926;2023-01-30T08:57:49;97783.88;;;0.48;100.00
52983;BME280;48698;45.736;13.926;2023-01-30T09:02:54;97805.81;;;1.16;100.00
52983;BME280;48698;45.736;13.926;2023-01-30T09:07:57;97660.66;;;0.83;100.00
52983;BME280;48698;45.736;13.926;2023-01-30T09:12:59;97713.81;;;1.47;100.00
52983;BME280;48698;45.736;13.926;2023-01-30T09:18:03;97793.09;;;2.15;100.00
52983;BME280;48698;45.736;13.926;2023-01-30T09:23:06;97731.53;;;1.87;100.00
52983;BME280;48698;45.736;13.926;2023-01-30T09:28:09;97772.00;;;2.23;100.00
52983;BME280;48698;45.736;13.926;2023-01-30T09:33:22;97803.13;;;2.42;100.00
52983;BME280;48698;45.736;13.926;2023-01-30T09:38:25;97769.28;;;2.29;100.00
52983;BME280;48698;45.736;13.926;2023-01-30T09:43:43;97701.75;;;1.92;100.00
52983;BME280;48698;45.736;13.926;2023-01-30T09:49:12;97744.97;;;2.21;100.00
52983;BME280;48698;45.736;13.926;2023-01-30T09:54:28;97788.91;;;2.55;100.00
52983;BME280;48698;45.736;13.926;2023-01-30T10:05:08;97753.34;;;2.90;100.00
52983;BME280;48698;45.736;13.926;2023-01-30T10:10:46;97756.19;;;3.22;100.00
52983;BME280;48698;45.736;13.926;2023-01-30T10:16:41;97750.03;;;3.25;100.00
52983;BME280;48698;45.736;13.926;2023-01-30T10:26:59;97717.53;;;6.47;100.00
52983;BME280;48698;45.736;13.926;2023-01-30T10:32:25;97721.44;;;6.62;100.00
52983;BME280;48698;45.736;13.926;2023-01-30T10:37:37;97715.78;;;5.35;100.00
52983;BME280;48698;45.736;13.926;2023-01-30T10:43:02;97703.72;;;5.28;100.00
52983;BME280;48698;45.736;13.926;2023-01-30T10:48:35;97694.91;;;5.58;100.00
52983;BME280;48698;45.736;13.926;2023-01-30T10:59:05;97680.06;;;5.56;100.00
52983;BME280;48698;45.736;13.926;2023-01-30T11:04:30;97622.22;;;4.94;100.00
52983;BME280;48698;45.736;13.926;2023-01-30T11:09:43;97638.72;;;5.30;100.00
52983;BME280;48698;45.736;13.926;2023-01-30T11:15:00;97613.53;;;5.49;100.00
52983;BME280;48698;45.736;13.926;2023-01-30T11:25:18;97495.91;;;4.37;100.00
52983;BME280;48698;45.736;13.926;2023-01-30T11:30:26;97625.19;;;5.13;100.00
52983;BME280;48698;45.736;13.926;2023-01-30T11:35:29;97524.00;;;4.64;100.00
52983;BME280;48698;45.736;13.926;2023-01-30T11:40:37;97600.63;;;5.12;100.00
52983;BME280;48698;45.736;13.926;2023-01-30T11:45:49;97560.19;;;5.15;100.00
52983;BME280;48698;45.736;13.926;2023-01-30T11:51:00;97574.81;;;5.51;100.00
52983;BME280;48698;45.736;13.926;2023-01-30T11:56:12;97458.13;;;4.97;100.00
52983;BME280;48698;45.736;13.926;2023-01-30T12:01:28;97575.25;;;5.65;100.00
52983;BME280;48698;45.736;13.926;2023-01-30T12:06:34;97568.88;;;5.72;100.00
52983;BME280;48698;45.736;13.926;2023-01-30T12:16:47;97535.19;;;5.81;100.00
52983;BME280;48698;45.736;13.926;2023-01-30T12:22:17;97510.50;;;5.58;100.00
52983;BME280;48698;45.736;13.926;2023-01-30T12:27:29;97528.59;;;5.95;100.00
52983;BME280;48698;45.736;13.926;2023-01-30T12:32:37;97503.38;;;5.87;100.00
52983;BME280;48698;45.736;13.926;2023-01-30T12:38:00;97501.03;;;5.53;100.00
52983;BME280;48698;45.736;13.926;2023-01-30T12:48:33;97494.88;;;5.79;100.00
52983;BME280;48698;45.736;13.926;2023-01-30T13:10:51;97451.41;;;5.65;100.00
52983;BME280;48698;45.736;13.926;2023-01-30T13:16:08;97445.81;;;5.74;100.00
52983;BME280;48698;45.736;13.926;2023-01-30T13:26:36;97476.19;;;5.86;100.00
52983;BME280;48698;45.736;13.926;2023-01-30T13:31:49;97374.41;;;5.08;100.00
52983;BME280;48698;45.736;13.926;2023-01-30T13:37:04;97470.94;;;5.85;100.00
52983;BME280;48698;45.736;13.926;2023-01-30T13:48:11;97432.19;;;5.88;100.00
52983;BME280;48698;45.736;13.926;2023-01-30T13:53:30;97356.72;;;5.61;100.00
52983;BME280;48698;45.736;13.926;2023-01-30T14:03:50;97199.50;;;4.42;100.00
52983;BME280;48698;45.736;13.926;2023-01-30T14:08:54;97430.22;;;5.68;100.00
52983;BME280;48698;45.736;13.926;2023-01-30T14:14:18;97360.88;;;5.18;100.00
52983;BME280;48698;45.736;13.926;2023-01-30T14:19:34;97425.50;;;5.53;100.00
52983;BME280;48698;45.736;13.926;2023-01-30T14:35:42;97392.94;;;5.56;100.00
52983;BME280;48698;45.736;13.926;2023-01-30T14:56:52;97375.84;;;5.43;100.00
52983;BME280;48698;45.736;13.926;2023-01-30T15:23:29;97397.97;;;4.85;100.00
52983;BME280;48698;45.736;13.926;2023-01-30T15:33:54;97414.81;;;4.51;100.00
52983;BME280;48698;45.736;13.926;2023-01-30T15:39:21;97390.13;;;4.28;100.00
52983;BME280;48698;45.736;13.926;2023-01-30T15:49:53;97425.34;;;3.93;100.00
52983;BME280;48698;45.736;13.926;2023-01-30T15:54:59;97430.75;;;3.56;100.00
52983;BME280;48698;45.736;13.926;2023-01-30T16:00:15;97425.59;;;3.19;100.00
52983;BME280;48698;45.736;13.926;2023-01-30T16:05:23;97379.53;;;2.38;100.00
52983;BME280;48698;45.736;13.926;2023-01-30T16:10:29;97385.00;;;1.88;100.00
52983;BME280;48698;45.736;13.926;2023-01-30T16:15:51;97422.53;;;1.88;100.00
52983;BME280;48698;45.736;13.926;2023-01-30T16:20:57;97104.78;;;-1.17;100.00
52983;BME280;48698;45.736;13.926;2023-01-30T16:26:06;97417.81;;;0.66;100.00
52983;BME280;48698;45.736;13.926;2023-01-30T16:31:10;97403.47;;;0.36;100.00
52983;BME280;48698;45.736;13.926;2023-01-30T16:41:35;97463.78;;;0.20;100.00
52983;BME280;48698;45.736;13.926;2023-01-30T16:52:22;97296.03;;;-1.33;100.00
52983;BME280;48698;45.736;13.926;2023-01-30T16:57:42;97378.25;;;-1.05;100.00
52983;BME280;48698;45.736;13.926;2023-01-30T17:02:59;97489.09;;;-0.66;100.00
52983;BME280;48698;45.736;13.926;2023-01-30T17:08:03;97249.81;;;-2.03;100.00
52983;BME280;48698;45.736;13.926;2023-01-30T17:13:37;97493.94;;;-1.20;100.00
52983;BME280;48698;45.736;13.926;2023-01-30T17:18:46;97453.06;;;-1.18;100.00
52983;BME280;48698;45.736;13.926;2023-01-30T17:23:52;97501.22;;;-0.61;100.00
52983;BME280;48698;45.736;13.926;2023-01-30T17:28:56;97321.78;;;-2.00;100.00
52983;BME280;48698;45.736;13.926;2023-01-30T17:33:59;97227.69;;;-2.55;100.00
52983;BME280;48698;45.736;13.926;2023-01-30T17:39:02;97467.84;;;-1.18;100.00
52983;BME280;48698;45.736;13.926;2023-01-30T17:44:15;97463.16;;;-2.00;100.00
52983;BME280;48698;45.736;13.926;2023-01-30T17:49:20;97526.38;;;-1.77;100.00
52983;BME280;48698;45.736;13.926;2023-01-30T17:54:24;97539.28;;;-1.52;100.00
52983;BME280;48698;45.736;13.926;2023-01-30T17:59:27;97375.13;;;-3.00;100.00
52983;BME280;48698;45.736;13.926;2023-01-30T18:04:32;97275.63;;;-3.16;100.00
52983;BME280;48698;45.736;13.926;2023-01-30T18:09:44;97441.47;;;-2.00;100.00
52983;BME280;48698;45.736;13.926;2023-01-30T18:14:47;97467.41;;;-1.82;100.00
52983;BME280;48698;45.736;13.926;2023-01-30T18:20:00;97510.03;;;-2.03;100.00
52983;BME280;48698;45.736;13.926;2023-01-30T18:25:05;97328.47;;;-3.36;100.00
52983;BME280;48698;45.736;13.926;2023-01-30T18:30:13;97424.53;;;-3.59;100.00
52983;BME280;48698;45.736;13.926;2023-01-30T18:35:18;97467.81;;;-3.02;100.00
52983;BME280;48698;45.736;13.926;2023-01-30T18:40:23;97417.50;;;-2.74;100.00
52983;BME280;48698;45.736;13.926;2023-01-30T18:45:26;97516.19;;;-2.30;100.00
52983;BME280;48698;45.736;13.926;2023-01-30T18:50:28;97280.94;;;-3.87;100.00
52983;BME280;48698;45.736;13.926;2023-01-30T18:55:32;97491.13;;;-2.59;100.00
52983;BME280;48698;45.736;13.926;2023-01-30T19:00:35;97530.09;;;-2.58;100.00
52983;BME280;48698;45.736;13.926;2023-01-30T19:05:37;97569.09;;;-2.50;100.00
52983;BME280;48698;45.736;13.926;2023-01-30T19:10:41;97535.34;;;-3.09;100.00
52983;BME280;48698;45.736;13.926;2023-01-30T19:15:46;97504.16;;;-3.52;100.00
52983;BME280;48698;45.736;13.926;2023-01-30T19:20:50;97495.50;;;-3.46;100.00
52983;BME280;48698;45.736;13.926;2023-01-30T19:25:55;97573.44;;;-2.71;100.00
52983;BME280;48698;45.736;13.926;2023-01-30T19:31:04;97576.06;;;-2.52;100.00
52983;BME280;48698;45.736;13.926;2023-01-30T19:36:09;97576.91;;;-2.64;100.00
52983;BME280;48698;45.736;13.926;2023-01-30T19:41:15;97583.84;;;-2.57;100.00
52983;BME280;48698;45.736;13.926;2023-01-30T19:46:19;97600.28;;;-3.14;100.00
52983;BME280;48698;45.736;13.926;2023-01-30T19:51:28;97463.44;;;-3.71;100.00
52983;BME280;48698;45.736;13.926;2023-01-30T19:56:33;97530.13;;;-3.35;100.00
52983;BME280;48698;45.736;13.926;2023-01-30T20:01:37;97483.41;;;-3.38;100.00
52983;BME280;48698;45.736;13.926;2023-01-30T20:06:52;97482.44;;;-3.86;100.00
52983;BME280;48698;45.736;13.926;2023-01-30T20:11:55;97628.91;;;-2.67;100.00
52983;BME280;48698;45.736;13.926;2023-01-30T20:16:59;97622.84;;;-2.74;100.00
52983;BME280;48698;45.736;13.926;2023-01-30T20:22:03;97515.19;;;-4.21;100.00
52983;BME280;48698;45.736;13.926;2023-01-30T20:27:10;97513.56;;;-3.95;100.00
52983;BME280;48698;45.736;13.926;2023-01-30T20:32:14;97348.16;;;-4.90;100.00
52983;BME280;48698;45.736;13.926;2023-01-30T20:37:18;97365.25;;;-5.22;100.00
52983;BME280;48698;45.736;13.926;2023-01-30T20:42:21;97602.00;;;-3.28;100.00
52983;BME280;48698;45.736;13.926;2023-01-30T20:47:25;97457.13;;;-4.55;100.00
52983;BME280;48698;45.736;13.926;2023-01-30T20:52:28;97516.09;;;-4.11;100.00
52983;BME280;48698;45.736;13.926;2023-01-30T20:57:42;97538.72;;;-3.62;100.00
52983;BME280;48698;45.736;13.926;2023-01-30T21:02:56;97379.44;;;-4.40;100.00
52983;BME280;48698;45.736;13.926;2023-01-30T21:07:59;97616.75;;;-2.85;100.00
52983;BME280;48698;45.736;13.926;2023-01-30T21:13:03;97565.47;;;-3.80;100.00
52983;BME280;48698;45.736;13.926;2023-01-30T21:18:07;97463.94;;;-4.71;100.00
52983;BME280;48698;45.736;13.926;2023-01-30T21:23:10;97437.00;;;-5.03;100.00
52983;BME280;48698;45.736;13.926;2023-01-30T21:28:14;97460.44;;;-4.77;100.00
52983;BME280;48698;45.736;13.926;2023-01-30T21:33:18;97504.81;;;-4.21;100.00
52983;BME280;48698;45.736;13.926;2023-01-30T21:38:33;97716.16;;;-3.46;100.00
52983;BME280;48698;45.736;13.926;2023-01-30T21:43:55;97626.69;;;-4.20;100.00
52983;BME280;48698;45.736;13.926;2023-01-30T21:48:58;97563.25;;;-4.70;100.00
52983;BME280;48698;45.736;13.926;2023-01-30T21:54:02;97480.97;;;-5.10;100.00
52983;BME280;48698;45.736;13.926;2023-01-30T21:59:06;97631.63;;;-4.53;100.00
52983;BME280;48698;45.736;13.926;2023-01-30T22:04:11;97749.78;;;-3.68;100.00
52983;BME280;48698;45.736;13.926;2023-01-30T22:09:18;97645.66;;;-4.25;100.00
52983;BME280;48698;45.736;13.926;2023-01-30T22:14:21;97603.19;;;-4.45;100.00
52983;BME280;48698;45.736;13.926;2023-01-30T22:19:26;97681.34;;;-3.88;100.00
52983;BME280;48698;45.736;13.926;2023-01-30T22:24:30;97741.88;;;-3.87;100.00
52983;BME280;48698;45.736;13.926;2023-01-30T22:29:33;97621.41;;;-4.30;100.00
52983;BME280;48698;45.736;13.926;2023-01-30T22:34:37;97624.19;;;-4.03;100.00
52983;BME280;48698;45.736;13.926;2023-01-30T22:39:41;97646.53;;;-4.23;100.00
52983;BME280;48698;45.736;13.926;2023-01-30T22:44:45;97616.03;;;-4.59;100.00
52983;BME280;48698;45.736;13.926;2023-01-30T22:49:49;97688.03;;;-4.22;100.00
52983;BME280;48698;45.736;13.926;2023-01-30T22:54:52;97738.44;;;-3.88;100.00
52983;BME280;48698;45.736;13.926;2023-01-30T23:00:00;97670.81;;;-4.12;100.00
52983;BME280;48698;45.736;13.926;2023-01-30T23:05:03;97570.16;;;-4.74;100.00
52983;BME280;48698;45.736;13.926;2023-01-30T23:10:08;97620.13;;;-4.87;100.00
52983;BME280;48698;45.736;13.926;2023-01-30T23:15:12;97761.22;;;-4.54;100.00
52983;BME280;48698;45.736;13.926;2023-01-30T23:20:16;97692.31;;;-5.20;100.00
52983;BME280;48698;45.736;13.926;2023-01-30T23:25:19;97727.56;;;-4.50;100.00
52983;BME280;48698;45.736;13.926;2023-01-30T23:30:24;97764.97;;;-4.22;100.00
52983;BME280;48698;45.736;13.926;2023-01-30T23:35:27;97768.19;;;-4.49;100.00
52983;BME280;48698;45.736;13.926;2023-01-30T23:40:41;97451.31;;;-6.39;100.00
52983;BME280;48698;45.736;13.926;2023-01-30T23:45:45;97749.25;;;-4.37;100.00
52983;BME280;48698;45.736;13.926;2023-01-30T23:50:49;97690.06;;;-4.88;100.00
52983;BME280;48698;45.736;13.926;2023-01-30T23:55:53;97483.03;;;-6.54;100.00
